createdAt,value
2024-04-14T00:02:23.252Z,100266.28
2024-04-14T00:04:54.711Z,100265.56
2024-04-14T00:07:24.980Z,100259.78
2024-04-14T00:09:51.955Z,100251.38
2024-04-14T00:12:21.544Z,100269.97
2024-04-14T00:14:48.495Z,100259.00
2024-04-14T00:17:18.013Z,100248.38
2024-04-14T00:19:44.942Z,100253.50
2024-04-14T00:22:18.302Z,100238.38
2024-04-14T00:24:46.277Z,100247.50
2024-04-14T00:27:15.772Z,100255.28
2024-04-14T00:29:42.629Z,100236.72
2024-04-14T00:32:12.407Z,100243.81
2024-04-14T00:34:39.609Z,100241.72
2024-04-14T00:37:09.348Z,100243.44
2024-04-14T00:39:38.898Z,100239.22
2024-04-14T00:42:08.747Z,100231.72
2024-04-14T00:44:36.006Z,100236.16
2024-04-14T00:47:06.140Z,100230.38
2024-04-14T00:49:34.589Z,100219.59
2024-04-14T00:52:07.108Z,100233.66
2024-04-14T00:54:34.616Z,100235.94
2024-04-14T00:57:07.343Z,100237.47
2024-04-14T00:59:35.560Z,100238.75
2024-04-14T01:02:07.569Z,100231.66
2024-04-14T01:04:35.483Z,100235.44
2024-04-14T01:07:05.226Z,100235.78
2024-04-14T01:09:32.256Z,100233.44
2024-04-14T01:12:01.771Z,100206.69
2024-04-14T01:14:31.394Z,100222.34
2024-04-14T01:17:01.536Z,100225.25
2024-04-14T01:19:28.560Z,100228.81
2024-04-14T01:21:58.160Z,100226.94
2024-04-14T01:24:25.130Z,100230.56
2024-04-14T01:26:57.291Z,100215.16
2024-04-14T01:29:24.468Z,100219.13
2024-04-14T01:31:54.001Z,100221.69
2024-04-14T01:34:22.385Z,100226.03
2024-04-14T01:36:51.959Z,100212.59
2024-04-14T01:39:19.154Z,100219.16
2024-04-14T01:41:48.678Z,100203.34
2024-04-14T01:44:18.225Z,100216.91
2024-04-14T01:46:47.712Z,100215.31
2024-04-14T01:49:14.632Z,100210.38
2024-04-14T01:51:44.167Z,100213.38
2024-04-14T01:54:11.897Z,100216.81
2024-04-14T01:56:41.432Z,100202.97
2024-04-14T01:59:11.038Z,100211.38
2024-04-14T02:01:40.675Z,100217.00
2024-04-14T02:04:10.445Z,100205.88
2024-04-14T02:06:37.565Z,100219.78
2024-04-14T02:09:07.350Z,100211.22
2024-04-14T02:11:36.834Z,100211.22
2024-04-14T02:14:03.888Z,100212.03
2024-04-14T02:16:33.465Z,100207.63
2024-04-14T02:19:03.248Z,100204.84
2024-04-14T02:21:33.065Z,100201.97
2024-04-14T02:23:59.978Z,100207.06
2024-04-14T02:26:29.721Z,100198.81
2024-04-14T02:28:57.019Z,100213.38
2024-04-14T02:31:26.492Z,100221.13
2024-04-14T02:33:53.502Z,100219.22
2024-04-14T02:36:28.442Z,100206.22
2024-04-14T02:38:55.985Z,100208.16
2024-04-14T02:41:25.435Z,100219.47
2024-04-14T02:43:52.336Z,100202.94
2024-04-14T02:46:21.860Z,100192.78
2024-04-14T02:48:50.768Z,100203.91
2024-04-14T02:51:21.920Z,100192.78
2024-04-14T02:53:51.630Z,100211.34
2024-04-14T02:56:22.441Z,100196.75
2024-04-14T02:58:49.336Z,100197.13
2024-04-14T03:01:20.456Z,100207.88
2024-04-14T03:03:48.409Z,100208.19
2024-04-14T03:06:18.364Z,100206.13
2024-04-14T03:08:45.448Z,100208.59
2024-04-14T03:11:17.764Z,100204.75
2024-04-14T03:13:44.668Z,100213.13
2024-04-14T03:16:14.393Z,100209.97
2024-04-14T03:18:41.295Z,100214.94
2024-04-14T03:21:11.000Z,100209.97
2024-04-14T03:23:37.960Z,100211.34
2024-04-14T03:26:08.054Z,100213.38
2024-04-14T03:28:37.715Z,100211.38
2024-04-14T03:31:08.130Z,100206.25
2024-04-14T03:33:36.394Z,100207.63
2024-04-14T03:36:07.925Z,100213.16
2024-04-14T03:38:37.876Z,100203.78
2024-04-14T03:41:07.843Z,100189.56
2024-04-14T03:43:40.110Z,100198.94
2024-04-14T03:46:12.895Z,100199.50
2024-04-14T03:48:39.925Z,100188.06
2024-04-14T03:51:09.487Z,100190.97
2024-04-14T03:53:36.413Z,100202.13
2024-04-14T03:56:06.534Z,100190.97
2024-04-14T03:58:35.285Z,100207.63
2024-04-14T04:01:07.849Z,100201.84
2024-04-14T04:03:35.434Z,100202.50
2024-04-14T04:06:05.313Z,100213.41
2024-04-14T04:08:32.325Z,100198.53
2024-04-14T04:11:03.702Z,100205.69
2024-04-14T04:13:31.182Z,100204.72
2024-04-14T04:16:01.645Z,100204.47
2024-04-14T04:18:32.121Z,100210.38
2024-04-14T04:21:03.381Z,100209.22
2024-04-14T04:23:30.482Z,100211.63
2024-04-14T04:26:02.432Z,100209.66
2024-04-14T04:28:29.842Z,100206.94
2024-04-14T04:31:00.001Z,100218.50
2024-04-14T04:33:30.929Z,100221.09
2024-04-14T04:36:01.436Z,100233.50
2024-04-14T04:38:28.334Z,100212.78
2024-04-14T04:40:57.811Z,100209.94
2024-04-14T04:43:25.371Z,100225.88
2024-04-14T04:45:54.962Z,100223.00
2024-04-14T04:48:22.209Z,100227.22
2024-04-14T04:50:54.452Z,100220.44
2024-04-14T04:53:21.307Z,100221.53
2024-04-14T04:55:50.867Z,100211.66
2024-04-14T04:58:17.850Z,100218.16
2024-04-14T05:00:54.982Z,100226.97
2024-04-14T05:03:22.015Z,100238.03
2024-04-14T05:06:03.698Z,100233.56
2024-04-14T05:08:31.197Z,100233.13
2024-04-14T05:11:02.040Z,100230.88
2024-04-14T05:13:31.394Z,100246.53
2024-04-14T05:16:04.319Z,100249.16
2024-04-14T05:18:31.695Z,100245.59
2024-04-14T05:21:04.179Z,100249.97
2024-04-14T05:23:31.165Z,100244.75
2024-04-14T05:26:03.392Z,100251.75
2024-04-14T05:28:30.583Z,100255.25
2024-04-14T05:31:00.321Z,100251.28
2024-04-14T05:33:27.723Z,100240.66
2024-04-14T05:35:58.765Z,100249.34
2024-04-14T05:38:28.383Z,100249.22
2024-04-14T05:40:58.011Z,100249.84
2024-04-14T05:43:24.966Z,100252.50
2024-04-14T05:45:54.907Z,100251.78
2024-04-14T05:48:22.136Z,100259.31
2024-04-14T05:50:51.914Z,100254.38
2024-04-14T05:53:21.833Z,100256.84
2024-04-14T05:55:51.877Z,100266.72
2024-04-14T05:58:21.512Z,100249.63
2024-04-14T06:00:48.661Z,100244.69
2024-04-14T06:03:18.586Z,100265.59
2024-04-14T06:05:49.636Z,100257.63
2024-04-14T06:08:20.731Z,100265.88
2024-04-14T06:10:47.619Z,100254.81
2024-04-14T06:13:19.668Z,100249.16
2024-04-14T06:15:49.399Z,100260.78
2024-04-14T06:18:19.543Z,100258.19
2024-04-14T06:20:46.401Z,100263.72
2024-04-14T06:23:17.797Z,100267.97
2024-04-14T06:25:47.191Z,100268.69
2024-04-14T06:28:20.571Z,100263.84
2024-04-14T06:30:47.470Z,100261.78
2024-04-14T06:33:17.317Z,100261.22
2024-04-14T06:35:45.675Z,100254.06
2024-04-14T06:38:15.287Z,100258.34
2024-04-14T06:40:42.147Z,100256.53
2024-04-14T06:43:11.638Z,100259.97
2024-04-14T06:45:41.140Z,100257.50
2024-04-14T06:48:11.125Z,100267.25
2024-04-14T06:50:38.070Z,100264.91
2024-04-14T06:53:09.162Z,100259.09
2024-04-14T06:55:36.564Z,100259.88
2024-04-14T06:58:06.235Z,100263.44
2024-04-14T07:00:34.347Z,100243.94
2024-04-14T07:03:06.529Z,100246.06
2024-04-14T07:05:33.506Z,100257.38
2024-04-14T07:08:03.038Z,100244.91
2024-04-14T07:10:30.148Z,100233.78
2024-04-14T07:12:59.842Z,100262.34
2024-04-14T07:15:26.782Z,100250.53
2024-04-14T07:17:56.438Z,100253.09
2024-04-14T07:20:26.029Z,100239.00
2024-04-14T07:22:55.897Z,100219.31
2024-04-14T07:25:23.446Z,100243.91
2024-04-14T07:27:53.136Z,100240.66
2024-04-14T07:30:20.143Z,100242.44
2024-04-14T07:32:50.043Z,100244.31
2024-04-14T07:35:17.064Z,100249.53
2024-04-14T07:37:49.237Z,100253.34
2024-04-14T07:40:16.301Z,100247.91
2024-04-14T07:42:45.870Z,100253.50
2024-04-14T07:45:12.787Z,100256.47
2024-04-14T07:47:44.832Z,100249.56
2024-04-14T07:50:12.441Z,100256.56
2024-04-14T07:52:41.973Z,100251.59
2024-04-14T07:55:11.737Z,100257.22
2024-04-14T07:57:41.293Z,100266.47
2024-04-14T08:00:09.358Z,100268.69
2024-04-14T08:02:45.695Z,100260.28
2024-04-14T08:05:12.789Z,100265.34
2024-04-14T08:07:42.419Z,100262.72
2024-04-14T08:10:13.709Z,100264.22
2024-04-14T08:12:43.731Z,100243.66
2024-04-14T08:15:10.776Z,100266.88
2024-04-14T08:17:40.452Z,100249.19
2024-04-14T08:20:08.800Z,100258.81
2024-04-14T08:22:38.596Z,100262.84
2024-04-14T08:25:06.386Z,100251.97
2024-04-14T08:27:38.729Z,100261.84
2024-04-14T08:30:06.925Z,100244.19
2024-04-14T08:32:36.472Z,100256.16
2024-04-14T08:35:03.871Z,100249.97
2024-04-14T08:37:33.439Z,100240.38
2024-04-14T08:40:02.873Z,100248.06
2024-04-14T08:42:33.129Z,100251.56
2024-04-14T08:45:03.464Z,100243.63
2024-04-14T08:47:35.149Z,100250.75
2024-04-14T08:50:04.530Z,100233.72
2024-04-14T08:52:36.277Z,100257.75
2024-04-14T08:55:03.230Z,100242.19
2024-04-14T08:57:34.634Z,100249.41
2024-04-14T09:00:07.809Z,100260.88
2024-04-14T09:02:40.833Z,100247.31
2024-04-14T09:05:09.244Z,100252.22
2024-04-14T09:07:38.790Z,100253.13
2024-04-14T09:10:06.350Z,100254.13
2024-04-14T09:12:36.323Z,100248.84
2024-04-14T09:15:08.402Z,100261.63
2024-04-14T09:17:41.343Z,100245.69
2024-04-14T09:20:09.278Z,100246.66
2024-04-14T09:22:39.717Z,100237.41
2024-04-14T09:25:07.883Z,100247.31
2024-04-14T09:27:37.595Z,100244.78
2024-04-14T09:30:18.166Z,100239.25
2024-04-14T09:32:48.099Z,100234.84
2024-04-14T09:35:16.094Z,100236.56
2024-04-14T09:37:45.866Z,100223.75
2024-04-14T09:40:13.746Z,100231.88
2024-04-14T09:42:44.741Z,100234.53
2024-04-14T09:45:11.818Z,100232.41
2024-04-14T09:47:47.423Z,100237.81
2024-04-14T09:50:14.461Z,100244.09
2024-04-14T09:52:46.520Z,100230.91
2024-04-14T09:55:13.500Z,100227.31
2024-04-14T09:57:43.175Z,100232.59
2024-04-14T10:00:10.660Z,100239.09
2024-04-14T10:02:45.842Z,100235.97
2024-04-14T10:05:13.439Z,100232.25
2024-04-14T10:07:43.093Z,100228.31
2024-04-14T10:10:12.043Z,100215.09
2024-04-14T10:12:42.119Z,100238.06
2024-04-14T10:15:09.732Z,100218.81
2024-04-14T10:17:39.270Z,100224.22
2024-04-14T10:20:13.833Z,100215.91
2024-04-14T10:22:45.178Z,100229.84
2024-04-14T10:25:19.564Z,100207.47
2024-04-14T10:27:49.548Z,100213.59
2024-04-14T10:30:22.058Z,100217.22
2024-04-14T10:33:04.552Z,100200.38
2024-04-14T10:35:34.694Z,100216.72
2024-04-14T10:38:04.270Z,100213.88
2024-04-14T10:40:31.308Z,100212.94
2024-04-14T10:43:01.136Z,100199.63
2024-04-14T10:45:29.397Z,100202.81
2024-04-14T10:48:00.509Z,100193.03
2024-04-14T10:50:29.226Z,100193.66
2024-04-14T10:53:01.868Z,100197.13
2024-04-14T10:55:29.491Z,100191.44
2024-04-14T10:57:59.105Z,100192.09
2024-04-14T11:00:26.790Z,100188.44
2024-04-14T11:02:59.711Z,100194.19
2024-04-14T11:05:27.211Z,100188.28
2024-04-14T11:07:57.712Z,100204.06
2024-04-14T11:10:27.992Z,100183.38
2024-04-14T11:12:58.179Z,100170.72
2024-04-14T11:15:26.839Z,100174.78
2024-04-14T11:17:57.233Z,100176.09
2024-04-14T11:20:24.167Z,100160.50
2024-04-14T11:22:54.375Z,100166.16
2024-04-14T11:25:21.302Z,100170.56
2024-04-14T11:27:53.444Z,100162.97
2024-04-14T11:30:20.628Z,100164.72
2024-04-14T11:32:50.825Z,100161.25
2024-04-14T11:35:21.633Z,100170.25
2024-04-14T11:37:54.122Z,100165.72
2024-04-14T11:40:22.718Z,100156.41
2024-04-14T11:42:55.386Z,100169.81
2024-04-14T11:45:22.534Z,100158.75
2024-04-14T11:47:52.124Z,100156.63
2024-04-14T11:50:20.171Z,100168.28
2024-04-14T11:52:49.868Z,100158.09
2024-04-14T11:55:16.743Z,100173.53
2024-04-14T11:57:46.179Z,100148.38
2024-04-14T12:00:16.057Z,100163.09
2024-04-14T12:02:46.369Z,100160.53
2024-04-14T12:05:14.628Z,100151.44
2024-04-14T12:07:44.088Z,100138.38
2024-04-14T12:10:11.519Z,100143.19
2024-04-14T12:12:41.023Z,100131.84
2024-04-14T12:15:08.167Z,100138.59
2024-04-14T12:17:43.339Z,100135.50
2024-04-14T12:20:10.368Z,100128.97
2024-04-14T12:22:39.914Z,100123.75
2024-04-14T12:25:07.401Z,100132.31
2024-04-14T12:27:37.015Z,100137.56
2024-04-14T12:30:04.418Z,100135.31
2024-04-14T12:32:33.843Z,100128.63
2024-04-14T12:35:03.738Z,100115.06
2024-04-14T12:37:33.154Z,100120.25
2024-04-14T12:39:59.979Z,100107.41
2024-04-14T12:42:29.397Z,100104.09
2024-04-14T12:44:56.209Z,100106.31
2024-04-14T12:47:25.591Z,100112.56
2024-04-14T12:49:52.432Z,100123.25
2024-04-14T12:52:24.454Z,100103.63
2024-04-14T12:54:52.331Z,100102.97
2024-04-14T12:57:21.831Z,100113.22
2024-04-14T12:59:49.117Z,100100.53
2024-04-14T13:02:18.570Z,100097.28
2024-04-14T13:04:46.961Z,100079.22
2024-04-14T13:07:17.316Z,100080.28
2024-04-14T13:09:46.954Z,100085.59
2024-04-14T13:12:16.383Z,100076.81
2024-04-14T13:14:45.478Z,100073.91
2024-04-14T13:17:14.910Z,100070.44
2024-04-14T13:19:41.753Z,100074.53
2024-04-14T13:22:11.461Z,100064.56
2024-04-14T13:24:40.911Z,100069.66
2024-04-14T13:27:12.980Z,100055.16
2024-04-14T13:29:39.808Z,100047.38
2024-04-14T13:32:09.767Z,100043.63
2024-04-14T13:34:36.622Z,100044.25
2024-04-14T13:37:06.360Z,100043.44
2024-04-14T13:39:33.446Z,100036.09
2024-04-14T13:42:02.834Z,100032.19
2024-04-14T13:44:33.390Z,100030.75
2024-04-14T13:47:02.958Z,100029.78
2024-04-14T13:49:34.000Z,100017.06
2024-04-14T13:52:05.500Z,100024.00
2024-04-14T13:54:32.901Z,100016.50
2024-04-14T13:57:02.541Z,100013.66
2024-04-14T13:59:32.408Z,100001.00
2024-04-14T14:02:01.902Z,100003.03
2024-04-14T14:04:28.867Z,100002.44
2024-04-14T14:06:58.360Z,99993.69
2024-04-14T14:09:25.204Z,99982.78
2024-04-14T14:11:54.568Z,99973.47
2024-04-14T14:14:21.359Z,99981.78
2024-04-14T14:16:53.388Z,99979.56
2024-04-14T14:19:20.261Z,99977.16
2024-04-14T14:21:49.739Z,99972.84
2024-04-14T14:24:17.161Z,99958.84
2024-04-14T14:26:46.584Z,99970.72
2024-04-14T14:29:13.400Z,99955.28
2024-04-14T14:31:44.125Z,99956.19
2024-04-14T14:34:32.288Z,99953.84
2024-04-14T14:37:01.988Z,99945.41
2024-04-14T14:39:31.694Z,99951.28
2024-04-14T14:42:01.628Z,99944.19
2024-04-14T14:44:31.111Z,99941.53
2024-04-14T14:47:00.801Z,99948.03
2024-04-14T14:49:30.367Z,99930.44
2024-04-14T14:51:59.821Z,99932.09
2024-04-14T14:54:26.759Z,99920.84
2024-04-14T14:56:56.130Z,99925.53
2024-04-14T14:59:23.403Z,99920.88
2024-04-14T15:01:52.954Z,99916.16
2024-04-14T15:04:19.952Z,99909.63
2024-04-14T15:06:53.216Z,99913.19
2024-04-14T15:09:20.142Z,99915.28
2024-04-14T15:11:49.555Z,99912.91
2024-04-14T15:14:16.424Z,99911.00
2024-04-14T15:16:47.702Z,99914.44
2024-04-14T15:19:14.554Z,99915.00
2024-04-14T15:21:43.981Z,99906.06
2024-04-14T15:24:17.342Z,99906.41
2024-04-14T15:26:45.068Z,99907.53
2024-04-14T15:29:14.497Z,99916.59
2024-04-14T15:31:41.829Z,99908.41
2024-04-14T15:34:11.358Z,99905.88
2024-04-14T15:36:38.254Z,99898.66
2024-04-14T15:39:07.674Z,99884.50
2024-04-14T15:41:37.146Z,99884.28
2024-04-14T15:44:14.538Z,99882.06
2024-04-14T15:46:45.188Z,99881.16
2024-04-14T15:49:14.870Z,99881.63
2024-04-14T15:51:41.749Z,99868.56
2024-04-14T15:54:11.699Z,99862.63
2024-04-14T15:56:41.825Z,99859.81
2024-04-14T15:59:11.539Z,99853.38
2024-04-14T16:01:38.585Z,99853.03
2024-04-14T16:04:08.856Z,99854.38
2024-04-14T16:06:38.508Z,99847.44
2024-04-14T16:09:08.225Z,99845.44
2024-04-14T16:11:35.631Z,99846.53
2024-04-14T16:14:08.012Z,99841.66
2024-04-14T16:16:34.843Z,99838.75
2024-04-14T16:19:04.916Z,99830.31
2024-04-14T16:21:32.035Z,99832.59
2024-04-14T16:24:04.439Z,99826.84
2024-04-14T16:26:31.702Z,99820.78
2024-04-14T16:29:02.185Z,99821.34
2024-04-14T16:31:32.120Z,99817.53
2024-04-14T16:34:01.753Z,99817.31
2024-04-14T16:36:28.671Z,99821.44
2024-04-14T16:39:01.253Z,99809.34
2024-04-14T16:41:28.702Z,99808.53
2024-04-14T16:43:58.636Z,99806.72
2024-04-14T16:46:25.470Z,99806.94
2024-04-14T16:48:57.494Z,99805.06
2024-04-14T16:51:25.482Z,99799.78
2024-04-14T16:53:54.852Z,99803.84
2024-04-14T16:56:21.872Z,99798.97
2024-04-14T16:58:51.524Z,99801.59
2024-04-14T17:01:18.444Z,99791.00
2024-04-14T17:03:48.476Z,99792.63
2024-04-14T17:06:17.972Z,99789.38
2024-04-14T17:08:49.814Z,99791.81
2024-04-14T17:11:17.046Z,99767.72
2024-04-14T17:13:46.445Z,99796.50
2024-04-14T17:16:13.523Z,99791.41
2024-04-14T17:18:43.058Z,99787.31
2024-04-14T17:21:10.326Z,99773.44
2024-04-14T17:23:42.321Z,99782.00
2024-04-14T17:26:09.489Z,99789.13
2024-04-14T17:28:38.894Z,99783.84
2024-04-14T17:31:06.328Z,99779.34
2024-04-14T17:33:35.818Z,99780.19
2024-04-14T17:36:03.108Z,99777.34
2024-04-14T17:38:32.583Z,99778.31
2024-04-14T17:41:02.233Z,99774.44
2024-04-14T17:43:31.709Z,99766.72
2024-04-14T17:45:59.468Z,99773.66
2024-04-14T17:48:29.555Z,99768.94
2024-04-14T17:50:56.424Z,99764.88
2024-04-14T17:53:25.864Z,99770.56
2024-04-14T17:55:53.103Z,99764.66
2024-04-14T17:58:25.170Z,99757.31
2024-04-14T18:00:57.688Z,99758.13
2024-04-14T18:03:27.571Z,99762.00
2024-04-14T18:05:54.625Z,99759.56
2024-04-14T18:08:24.171Z,99764.44
2024-04-14T18:10:51.066Z,99751.81
2024-04-14T18:13:20.621Z,99749.97
2024-04-14T18:15:50.079Z,99749.16
2024-04-14T18:18:20.597Z,99754.44
2024-04-14T18:20:48.950Z,99746.06
2024-04-14T18:23:18.603Z,99756.09
2024-04-14T18:25:45.385Z,99755.47
2024-04-14T18:28:15.452Z,99760.97
2024-04-14T18:30:42.561Z,99756.47
2024-04-14T18:33:14.952Z,99753.22
2024-04-14T18:35:42.044Z,99756.22
2024-04-14T18:38:11.983Z,99766.25
2024-04-14T18:40:39.554Z,99753.16
2024-04-14T18:43:09.275Z,99764.81
2024-04-14T18:45:36.480Z,99760.09
2024-04-14T18:48:06.709Z,99759.06
2024-04-14T18:50:36.582Z,99762.53
2024-04-14T18:53:06.606Z,99769.00
2024-04-14T18:55:33.611Z,99768.41
2024-04-14T18:58:03.133Z,99767.75
2024-04-14T19:00:30.843Z,99772.81
2024-04-14T19:03:00.605Z,99767.69
2024-04-14T19:05:27.455Z,99767.22
2024-04-14T19:07:59.454Z,99757.03
2024-04-14T19:10:26.595Z,99771.13
2024-04-14T19:12:56.018Z,99765.28
2024-04-14T19:15:22.997Z,99770.44
2024-04-14T19:17:52.612Z,99758.03
2024-04-14T19:20:19.507Z,99765.97
2024-04-14T19:22:49.003Z,99762.63
2024-04-14T19:25:18.556Z,99767.03
2024-04-14T19:27:48.002Z,99758.25
2024-04-14T19:30:14.964Z,99751.91
2024-04-14T19:32:44.762Z,99731.41
2024-04-14T19:35:14.427Z,99747.59
2024-04-14T19:37:44.805Z,99749.72
2024-04-14T19:40:11.878Z,99750.47
2024-04-14T19:42:44.018Z,99739.78
2024-04-14T19:45:10.868Z,99739.59
2024-04-14T19:47:40.843Z,99740.84
2024-04-14T19:50:08.078Z,99737.91
2024-04-14T19:52:37.497Z,99737.59
2024-04-14T19:55:06.112Z,99732.28
2024-04-14T19:57:35.664Z,99733.66
2024-04-14T20:00:08.654Z,99718.84
2024-04-14T20:02:40.259Z,99720.41
2024-04-14T20:05:10.011Z,99718.88
2024-04-14T20:07:37.110Z,99709.19
2024-04-14T20:10:07.708Z,99710.41
2024-04-14T20:12:34.589Z,99693.09
2024-04-14T20:15:05.482Z,99700.19
2024-04-14T20:17:35.014Z,99694.63
2024-04-14T20:20:05.318Z,99698.19
2024-04-14T20:22:32.334Z,99689.63
2024-04-14T20:25:02.029Z,99684.66
2024-04-14T20:27:32.237Z,99683.47
2024-04-14T20:30:04.272Z,99669.09
2024-04-14T20:32:31.380Z,99666.25
2024-04-14T20:35:03.418Z,99667.88
2024-04-14T20:37:30.454Z,99666.34
2024-04-14T20:39:59.921Z,99673.91
2024-04-14T20:42:26.912Z,99659.53
2024-04-14T20:44:56.387Z,99655.81
2024-04-14T20:47:23.366Z,99666.44
2024-04-14T20:49:53.108Z,99658.44
2024-04-14T20:52:22.762Z,99656.09
2024-04-14T20:54:52.200Z,99648.25
2024-04-14T20:57:19.491Z,99646.72
2024-04-14T20:59:48.866Z,99638.59
2024-04-14T21:02:16.038Z,99636.72
2024-04-14T21:04:49.745Z,99632.34
2024-04-14T21:07:20.216Z,99628.81
2024-04-14T21:09:49.918Z,99622.31
2024-04-14T21:12:19.427Z,99628.16
2024-04-14T21:14:46.606Z,99627.69
2024-04-14T21:17:16.424Z,99624.72
2024-04-14T21:19:46.514Z,99623.13
2024-04-14T21:22:15.988Z,99620.94
2024-04-14T21:24:42.857Z,99619.22
2024-04-14T21:27:15.097Z,99622.81
2024-04-14T21:29:41.939Z,99623.44
2024-04-14T21:32:11.350Z,99626.56
2024-04-14T21:34:38.456Z,99621.63
2024-04-14T21:37:08.447Z,99624.63
2024-04-14T21:39:35.413Z,99615.44
2024-04-14T21:42:06.435Z,99607.19
2024-04-14T21:44:37.261Z,99617.69
2024-04-14T21:47:06.704Z,99611.06
2024-04-14T21:49:34.840Z,99607.91
2024-04-14T21:52:04.312Z,99594.78
2024-04-14T21:54:31.137Z,99595.97
2024-04-14T21:57:00.831Z,99586.66
2024-04-14T21:59:31.547Z,99580.22
2024-04-14T22:02:03.969Z,99579.47
2024-04-14T22:04:32.558Z,99581.47
2024-04-14T22:07:02.417Z,99573.72
2024-04-14T22:09:29.514Z,99575.78
2024-04-14T22:11:58.918Z,99575.16
2024-04-14T22:14:25.696Z,99574.53
2024-04-14T22:16:55.475Z,99567.41
2024-04-14T22:19:25.062Z,99564.91
2024-04-14T22:21:54.824Z,99581.50
2024-04-14T22:24:21.735Z,99567.31
2024-04-14T22:26:51.154Z,99559.03
2024-04-14T22:29:18.154Z,99563.53
2024-04-14T22:31:47.600Z,99570.38
2024-04-14T22:34:14.665Z,99560.88
2024-04-14T22:36:46.755Z,99557.13
2024-04-14T22:39:13.656Z,99559.22
2024-04-14T22:41:43.086Z,99562.31
2024-04-14T22:44:09.966Z,99553.16
2024-04-14T22:46:39.399Z,99558.03
2024-04-14T22:49:06.938Z,99554.69
2024-04-14T22:51:36.605Z,99543.13
2024-04-14T22:54:06.855Z,99546.53
2024-04-14T22:56:36.342Z,99562.66
2024-04-14T22:59:03.348Z,99559.59
2024-04-14T23:01:33.149Z,99554.00
2024-04-14T23:04:00.576Z,99558.94
2024-04-14T23:06:30.092Z,99557.59
2024-04-14T23:08:57.024Z,99552.97
2024-04-14T23:11:29.044Z,99567.94
2024-04-14T23:13:58.892Z,99568.53
2024-04-14T23:16:28.319Z,99537.56
2024-04-14T23:18:57.293Z,99530.22
2024-04-14T23:21:26.715Z,99534.00
2024-04-14T23:23:53.530Z,99556.75
2024-04-14T23:26:22.955Z,99546.84
2024-04-14T23:28:52.523Z,99544.59
2024-04-14T23:31:22.234Z,99568.16
2024-04-14T23:33:49.096Z,99585.63
2024-04-14T23:36:18.702Z,99569.50
2024-04-14T23:38:45.529Z,99545.97
2024-04-14T23:41:15.178Z,99535.66
2024-04-14T23:43:42.221Z,99521.56
2024-04-14T23:46:14.733Z,99534.53
2024-04-14T23:48:41.580Z,99542.63
2024-04-14T23:51:11.010Z,99563.06
2024-04-14T23:53:38.205Z,99537.78
2024-04-14T23:56:08.399Z,99536.91
2024-04-14T23:58:36.694Z,99531.13
